createdAt,value
2017-10-12T00:00:01.852Z,65.24
2017-10-12T00:01:01.535Z,65.24
2017-10-12T00:02:01.580Z,65.14
2017-10-12T00:03:01.614Z,65.24
2017-10-12T00:04:01.649Z,65.24
2017-10-12T00:05:01.677Z,65.14
2017-10-12T00:06:01.745Z,65.14
2017-10-12T00:07:02.100Z,64.28
2017-10-12T00:08:01.778Z,65.34
2017-10-12T00:09:01.821Z,65.05
2017-10-12T00:10:01.829Z,65.34
2017-10-12T00:11:01.863Z,65.14
2017-10-12T00:12:01.967Z,65.34
2017-10-12T00:13:01.932Z,65.34
2017-10-12T00:14:02.326Z,65.34
2017-10-12T00:15:01.993Z,64.37
2017-10-12T00:16:02.093Z,65.14
2017-10-12T00:17:02.124Z,65.34
2017-10-12T00:18:02.141Z,64.95
2017-10-12T00:19:02.126Z,65.14
2017-10-12T00:20:02.158Z,65.24
2017-10-12T00:21:02.558Z,65.34
2017-10-12T00:22:02.356Z,65.14
2017-10-12T00:23:02.255Z,65.34
2017-10-12T00:24:02.288Z,65.14
2017-10-12T00:25:02.326Z,65.43
2017-10-12T00:26:02.356Z,65.05
2017-10-12T00:27:02.441Z,65.05
2017-10-12T00:29:02.808Z,65.24
2017-10-12T00:30:02.585Z,65.24
2017-10-12T00:31:02.522Z,65.34
2017-10-12T00:32:02.618Z,65.24
2017-10-12T00:33:02.609Z,65.24
2017-10-12T00:35:03.024Z,65.24
2017-10-12T00:36:02.701Z,65.24
2017-10-12T00:37:02.737Z,65.14
2017-10-12T00:38:02.753Z,65.24
2017-10-12T00:39:02.783Z,65.24
2017-10-12T00:40:03.022Z,65.24
2017-10-12T00:41:03.171Z,65.24
2017-10-12T00:42:02.959Z,65.14
2017-10-12T00:43:02.917Z,65.14
2017-10-12T00:44:02.950Z,64.86
2017-10-12T00:45:03.003Z,64.95
2017-10-12T00:46:03.045Z,64.86
2017-10-12T00:48:03.405Z,65.05
2017-10-12T00:49:03.112Z,65.05
2017-10-12T00:50:03.164Z,64.76
2017-10-12T00:53:03.311Z,65.14
2017-10-12T00:54:03.359Z,65.05
2017-10-12T00:57:03.728Z,64.95
2017-10-12T00:58:03.663Z,64.95
2017-10-12T01:02:06.583Z,65.14
2017-10-12T01:03:03.792Z,65.14
2017-10-12T01:04:03.967Z,65.14
2017-10-12T01:05:03.637Z,65.14
2017-10-12T01:06:03.764Z,65.14
2017-10-12T01:07:03.768Z,64.86
2017-10-12T01:08:03.769Z,64.76
2017-10-12T01:09:03.768Z,64.95
2017-10-12T01:10:04.170Z,64.86
2017-10-12T01:11:03.913Z,64.76
2017-10-12T01:12:03.907Z,65.14
2017-10-12T01:13:03.959Z,64.86
2017-10-12T01:14:03.953Z,65.05
2017-10-12T01:15:03.966Z,64.76
2017-10-12T01:16:04.324Z,64.95
2017-10-12T01:17:04.103Z,64.95
2017-10-12T01:18:04.145Z,64.95
2017-10-12T01:19:04.174Z,64.76
2017-10-12T01:20:04.185Z,65.24
2017-10-12T01:21:04.185Z,65.05
2017-10-12T01:22:04.548Z,65.05
2017-10-12T01:23:04.282Z,65.14
2017-10-12T01:24:04.436Z,65.24
2017-10-12T01:25:04.372Z,64.86
2017-10-12T01:26:04.333Z,64.86
2017-10-12T01:27:04.396Z,65.14
2017-10-12T01:28:04.744Z,65.43
2017-10-12T01:29:04.432Z,65.34
2017-10-12T01:30:04.523Z,65.05
2017-10-12T01:31:04.499Z,65.05
2017-10-12T01:32:04.598Z,64.66
2017-10-12T01:33:04.631Z,65.43
2017-10-12T01:34:04.964Z,64.86
2017-10-12T01:35:04.642Z,65.14
2017-10-12T01:36:04.706Z,65.24
2017-10-12T01:37:04.700Z,65.34
2017-10-12T01:38:04.731Z,64.47
2017-10-12T01:39:04.823Z,65.14
2017-10-12T01:40:05.139Z,65.05
2017-10-12T01:41:04.820Z,65.14
2017-10-12T01:42:04.871Z,64.76
2017-10-12T01:43:04.955Z,65.14
2017-10-12T01:44:05.070Z,65.24
2017-10-12T01:46:05.310Z,64.86
2017-10-12T01:47:05.061Z,64.86
2017-10-12T01:48:05.060Z,65.34
2017-10-12T01:49:05.100Z,64.76
2017-10-12T01:50:05.180Z,64.56
2017-10-12T01:51:05.154Z,64.47
2017-10-12T01:52:05.206Z,64.37
2017-10-12T01:53:05.581Z,65.34
2017-10-12T01:54:05.253Z,64.37
2017-10-12T01:55:05.348Z,64.37
2017-10-12T01:56:05.317Z,64.37
2017-10-12T01:57:05.367Z,64.76
2017-10-12T01:58:05.444Z,64.28
2017-10-12T01:59:05.480Z,64.47
2017-10-12T02:00:05.819Z,64.37
2017-10-12T02:01:05.476Z,64.47
2017-10-12T02:02:05.573Z,64.47
2017-10-12T02:03:05.568Z,64.18
2017-10-12T02:04:05.596Z,64.37
2017-10-12T02:05:05.676Z,64.56
2017-10-12T02:06:05.642Z,64.28
2017-10-12T02:07:06.059Z,64.28
2017-10-12T02:08:05.764Z,64.56
2017-10-12T02:09:05.810Z,64.47
2017-10-12T02:10:05.774Z,64.08
2017-10-12T02:11:05.895Z,64.18
2017-10-12T02:12:05.906Z,64.18
2017-10-12T02:13:05.924Z,64.66
2017-10-12T02:14:06.263Z,64.47
2017-10-12T02:15:05.988Z,64.47
2017-10-12T02:17:06.187Z,64.47
2017-10-12T02:18:06.100Z,64.37
2017-10-12T02:19:06.123Z,64.37
2017-10-12T02:20:06.121Z,64.18
2017-10-12T02:21:06.514Z,64.37
2017-10-12T02:22:06.220Z,64.56
2017-10-12T02:23:06.402Z,64.34
2017-10-12T02:24:06.307Z,64.28
2017-10-12T02:25:06.267Z,64.56
2017-10-12T02:29:06.778Z,65.20
2017-10-12T02:31:06.529Z,64.82
2017-10-12T02:36:06.994Z,64.34
2017-10-12T02:37:06.653Z,64.15
2017-10-12T02:38:06.738Z,64.53
2017-10-12T02:39:06.760Z,64.72
2017-10-12T02:40:06.770Z,64.82
2017-10-12T02:41:06.802Z,64.53
2017-10-12T02:42:06.858Z,64.53
2017-10-12T02:43:07.240Z,65.20
2017-10-12T02:44:06.907Z,65.34
2017-10-12T02:45:06.984Z,64.82
2017-10-12T02:46:06.965Z,65.20
2017-10-12T02:47:07.028Z,65.20
2017-10-12T02:48:07.036Z,65.24
2017-10-12T02:49:07.069Z,64.72
2017-10-12T02:50:07.395Z,65.11
2017-10-12T02:51:07.160Z,65.11
2017-10-12T02:52:07.208Z,65.20
2017-10-12T02:53:07.224Z,65.14
2017-10-12T02:54:07.232Z,65.11
2017-10-12T02:55:07.246Z,65.01
2017-10-12T02:56:07.281Z,65.01
2017-10-12T02:57:07.671Z,65.11
2017-10-12T02:58:07.405Z,65.20
2017-10-12T02:59:07.384Z,65.30
2017-10-12T03:00:07.405Z,65.01
2017-10-12T03:01:07.452Z,65.01
2017-10-12T03:02:07.467Z,64.82
2017-10-12T03:03:07.576Z,64.82
2017-10-12T03:04:07.907Z,65.11
2017-10-12T03:05:07.614Z,64.82
2017-10-12T03:06:07.605Z,65.20
2017-10-12T03:07:07.654Z,65.11
2017-10-12T03:08:07.687Z,64.82
2017-10-12T03:09:07.744Z,65.11
2017-10-12T03:10:08.078Z,65.20
2017-10-12T03:12:07.810Z,65.05
2017-10-12T03:13:07.875Z,64.82
2017-10-12T03:15:07.908Z,64.92
2017-10-12T03:16:07.921Z,65.11
2017-10-12T03:17:08.254Z,64.82
2017-10-12T03:18:08.141Z,65.50
2017-10-12T03:19:08.124Z,65.30
2017-10-12T03:20:08.058Z,64.82
2017-10-12T03:21:08.094Z,65.11
2017-10-12T03:22:08.119Z,65.40
2017-10-12T03:23:08.525Z,65.30
2017-10-12T03:24:08.189Z,64.72
2017-10-12T03:25:08.279Z,64.53
2017-10-12T03:26:08.314Z,64.72
2017-10-12T03:27:08.337Z,65.40
2017-10-12T03:28:08.386Z,65.01
2017-10-12T03:29:08.701Z,65.30
2017-10-12T03:30:08.382Z,65.20
2017-10-12T03:32:08.474Z,65.30
2017-10-12T03:33:08.554Z,64.82
2017-10-12T03:34:08.529Z,65.40
2017-10-12T03:35:08.896Z,65.01
2017-10-12T03:36:08.643Z,65.11
2017-10-12T03:37:08.654Z,65.14
2017-10-12T03:38:08.640Z,64.92
2017-10-12T03:39:08.774Z,64.82
2017-10-12T03:40:08.706Z,65.11
2017-10-12T03:42:09.152Z,64.95
2017-10-12T03:43:08.820Z,65.11
2017-10-12T03:45:08.930Z,65.11
2017-10-12T03:46:08.947Z,65.30
2017-10-12T03:47:08.990Z,65.11
2017-10-12T03:48:09.332Z,65.30
2017-10-12T03:49:09.061Z,65.20
2017-10-12T03:50:09.044Z,65.11
2017-10-12T03:51:09.081Z,65.01
2017-10-12T03:52:09.092Z,65.11
2017-10-12T03:54:09.527Z,65.01
2017-10-12T03:55:09.259Z,65.11
2017-10-12T03:56:09.221Z,64.82
2017-10-12T03:57:09.271Z,65.11
2017-10-12T03:58:09.308Z,65.11
2017-10-12T03:59:09.396Z,65.30
2017-10-12T04:00:09.716Z,65.11
2017-10-12T04:04:09.533Z,64.53
2017-10-12T04:05:09.517Z,65.01
2017-10-12T04:06:09.857Z,65.11
2017-10-12T04:08:09.630Z,65.20
2017-10-12T04:10:09.727Z,65.30
2017-10-12T04:11:09.762Z,65.01
2017-10-12T04:12:10.112Z,64.72
2017-10-12T04:13:10.535Z,65.30
2017-10-12T04:14:09.824Z,65.01
2017-10-12T04:15:09.910Z,65.20
2017-10-12T04:16:09.893Z,65.30
2017-10-12T04:17:09.979Z,64.72
2017-10-12T04:18:10.191Z,65.11
2017-10-12T04:19:10.040Z,65.11
2017-10-12T04:20:10.059Z,65.11
2017-10-12T04:21:10.105Z,65.30
2017-10-12T04:22:10.069Z,65.40
2017-10-12T04:23:10.155Z,64.72
2017-10-12T04:24:10.484Z,65.20
2017-10-12T04:25:10.232Z,65.01
2017-10-12T04:26:10.267Z,65.11
2017-10-12T04:27:10.311Z,64.63
2017-10-12T04:28:10.430Z,64.53
2017-10-12T04:29:10.313Z,64.63
2017-10-12T04:30:10.403Z,64.72
2017-10-12T04:31:10.734Z,65.20
2017-10-12T04:32:10.463Z,64.72
2017-10-12T04:33:10.431Z,64.43
2017-10-12T04:34:10.463Z,64.24
2017-10-12T04:35:10.518Z,64.53
2017-10-12T04:36:10.527Z,64.72
2017-10-12T04:37:10.561Z,64.72
2017-10-12T04:38:10.948Z,64.34
2017-10-12T04:39:10.722Z,64.53
2017-10-12T04:40:10.679Z,64.72
2017-10-12T04:41:10.712Z,64.63
2017-10-12T04:42:10.725Z,65.20
2017-10-12T04:43:10.832Z,64.34
2017-10-12T04:44:10.801Z,64.34
2017-10-12T04:45:11.224Z,64.63
2017-10-12T04:46:10.884Z,64.24
2017-10-12T04:47:10.948Z,64.43
2017-10-12T04:48:10.931Z,64.34
2017-10-12T04:49:10.997Z,64.34
2017-10-12T04:50:11.054Z,64.15
2017-10-12T04:51:11.024Z,64.34
2017-10-12T04:52:11.403Z,64.43
2017-10-12T04:53:11.090Z,64.53
2017-10-12T04:54:11.128Z,64.34
2017-10-12T04:55:11.313Z,65.30
2017-10-12T04:56:11.200Z,64.72
2017-10-12T04:57:11.264Z,64.63
2017-10-12T04:58:11.303Z,64.82
2017-10-12T04:59:11.622Z,64.53
2017-10-12T05:00:11.372Z,65.30
2017-10-12T05:01:11.409Z,64.92
2017-10-12T05:02:11.406Z,64.72
2017-10-12T05:03:11.467Z,65.20
2017-10-12T05:04:11.483Z,65.11
2017-10-12T05:05:11.511Z,64.82
2017-10-12T05:06:12.017Z,64.82
2017-10-12T05:07:11.531Z,65.20
2017-10-12T05:08:11.638Z,65.11
2017-10-12T05:09:11.645Z,65.20
2017-10-12T05:10:11.635Z,65.40
2017-10-12T05:11:11.688Z,65.30
2017-10-12T05:12:12.003Z,65.20
2017-10-12T05:13:12.089Z,65.11
2017-10-12T05:14:11.764Z,65.30
2017-10-12T05:15:11.804Z,65.01
2017-10-12T05:16:11.838Z,65.01
2017-10-12T05:17:11.872Z,65.11
2017-10-12T05:18:11.958Z,64.72
2017-10-12T05:19:11.987Z,65.20
2017-10-12T05:20:12.308Z,64.43
2017-10-12T05:21:12.086Z,64.53
2017-10-12T05:22:12.088Z,64.43
2017-10-12T05:23:12.108Z,64.63
2017-10-12T05:24:12.080Z,65.30
2017-10-12T05:25:12.145Z,65.20
2017-10-12T05:26:12.210Z,65.30
2017-10-12T05:27:12.544Z,65.11
2017-10-12T05:28:12.475Z,64.92
2017-10-12T05:29:12.251Z,65.20
2017-10-12T05:30:12.294Z,64.72
2017-10-12T05:31:12.306Z,65.30
2017-10-12T05:32:12.397Z,65.01
2017-10-12T05:33:12.434Z,65.20
2017-10-12T05:34:12.424Z,64.82
2017-10-12T05:35:12.456Z,65.20
2017-10-12T05:36:12.481Z,64.34
2017-10-12T05:37:12.505Z,65.01
2017-10-12T05:38:12.539Z,65.20
2017-10-12T05:39:12.582Z,64.53
2017-10-12T05:40:12.914Z,65.20
2017-10-12T05:41:12.628Z,64.92
2017-10-12T05:42:12.715Z,65.11
2017-10-12T05:43:12.771Z,65.11
2017-10-12T05:44:12.725Z,65.01
2017-10-12T05:45:12.826Z,65.30
2017-10-12T05:46:13.142Z,65.20
2017-10-12T05:47:12.841Z,65.20
2017-10-12T05:50:12.983Z,65.40
2017-10-12T05:53:13.397Z,64.92
2017-10-12T05:54:13.100Z,65.11
2017-10-12T05:55:13.103Z,64.82
2017-10-12T05:56:13.171Z,65.11
2017-10-12T05:57:13.181Z,65.40
2017-10-12T05:58:13.342Z,64.82
2017-10-12T05:59:15.670Z,64.92
2017-10-12T06:00:13.292Z,64.92
2017-10-12T06:01:13.287Z,65.01
2017-10-12T06:02:13.807Z,64.82
2017-10-12T06:03:13.515Z,65.01
2017-10-12T06:04:13.391Z,65.20
2017-10-12T06:05:13.464Z,64.53
2017-10-12T06:06:13.515Z,65.11
2017-10-12T06:07:13.527Z,65.30
2017-10-12T06:08:13.557Z,65.30
2017-10-12T06:09:13.603Z,64.34
2017-10-12T06:10:13.573Z,65.30
2017-10-12T06:11:13.950Z,64.43
2017-10-12T06:12:13.641Z,64.72
2017-10-12T06:13:13.744Z,64.82
2017-10-12T06:14:13.748Z,64.53
2017-10-12T06:15:13.816Z,64.43
2017-10-12T06:16:13.764Z,64.72
2017-10-12T06:17:14.145Z,65.11
2017-10-12T06:18:13.845Z,65.40
2017-10-12T06:19:13.930Z,64.72
2017-10-12T06:20:13.959Z,65.30
2017-10-12T06:21:13.956Z,64.63
2017-10-12T06:22:13.969Z,65.59
2017-10-12T06:23:14.340Z,64.82
2017-10-12T06:24:14.090Z,65.01
2017-10-12T06:25:14.139Z,65.20
2017-10-12T06:26:14.105Z,65.11
2017-10-12T06:27:14.140Z,65.20
2017-10-12T06:28:14.200Z,64.72
2017-10-12T06:29:14.551Z,64.82
2017-10-12T06:30:14.268Z,65.11
2017-10-12T06:31:14.273Z,64.15
2017-10-12T06:32:14.299Z,65.30
2017-10-12T06:33:14.388Z,65.30
2017-10-12T06:34:14.359Z,64.53
2017-10-12T06:35:14.736Z,64.53
2017-10-12T06:36:14.478Z,65.30
2017-10-12T06:37:14.449Z,64.72
2017-10-12T06:38:14.489Z,65.20
2017-10-12T06:39:14.558Z,64.34
2017-10-12T06:40:14.565Z,64.34
2017-10-12T06:41:14.988Z,64.34
2017-10-12T06:42:14.641Z,64.53
2017-10-12T06:43:14.637Z,64.15
2017-10-12T06:44:14.718Z,64.63
2017-10-12T06:45:14.762Z,64.34
2017-10-12T06:46:14.798Z,64.43
2017-10-12T06:47:15.375Z,64.34
2017-10-12T06:48:14.825Z,64.63
2017-10-12T06:49:14.847Z,64.34
2017-10-12T06:50:14.890Z,64.53
2017-10-12T06:51:14.945Z,64.63
2017-10-12T06:52:14.982Z,64.34
2017-10-12T06:53:15.337Z,64.34
2017-10-12T06:54:15.015Z,64.15
2017-10-12T06:55:15.028Z,64.34
2017-10-12T06:56:15.109Z,64.24
2017-10-12T06:57:15.141Z,64.18
2017-10-12T06:58:15.179Z,64.66
2017-10-12T06:59:15.225Z,64.28
2017-10-12T07:00:15.718Z,64.47
2017-10-12T07:01:15.295Z,64.15
2017-10-12T07:02:15.306Z,64.63
2017-10-12T07:03:15.314Z,64.56
2017-10-12T07:04:15.370Z,64.56
2017-10-12T07:05:15.452Z,64.72
2017-10-12T07:06:15.401Z,64.24
2017-10-12T07:07:15.771Z,64.05
2017-10-12T07:08:15.520Z,64.53
2017-10-12T07:10:15.864Z,64.15
2017-10-12T07:11:15.628Z,64.24
2017-10-12T07:12:15.658Z,64.18
2017-10-12T07:13:15.635Z,64.24
2017-10-12T07:14:16.015Z,64.24
2017-10-12T07:15:15.737Z,63.95
2017-10-12T07:16:15.765Z,64.05
2017-10-12T07:17:15.811Z,63.47
2017-10-12T07:19:15.884Z,64.18
2017-10-12T07:20:15.908Z,63.89
2017-10-12T07:21:16.232Z,63.70
2017-10-12T07:22:15.958Z,64.08
2017-10-12T07:23:15.958Z,63.79
2017-10-12T07:24:16.038Z,63.79
2017-10-12T07:25:16.017Z,63.79
2017-10-12T07:26:16.115Z,63.79
2017-10-12T07:31:16.554Z,63.50
2017-10-12T07:32:16.912Z,63.89
2017-10-12T07:33:16.267Z,63.50
2017-10-12T07:34:16.370Z,63.60
2017-10-12T07:35:16.386Z,63.50
2017-10-12T07:36:16.416Z,63.31
2017-10-12T07:37:16.453Z,63.21
2017-10-12T07:38:16.782Z,63.40
2017-10-12T07:39:16.530Z,63.31
2017-10-12T07:40:16.552Z,63.12
2017-10-12T07:41:16.599Z,62.92
2017-10-12T07:42:16.630Z,62.73
2017-10-12T07:43:16.650Z,62.54
2017-10-12T07:44:16.638Z,63.12
2017-10-12T07:45:17.227Z,62.92
2017-10-12T07:46:16.712Z,62.82
2017-10-12T07:47:16.732Z,62.92
2017-10-12T07:48:16.809Z,62.92
2017-10-12T07:49:16.910Z,62.82
2017-10-12T07:50:16.828Z,62.44
2017-10-12T07:51:16.975Z,62.82
2017-10-12T07:52:17.244Z,62.54
2017-10-12T07:53:17.014Z,62.73
2017-10-12T07:54:17.109Z,62.34
2017-10-12T07:55:16.993Z,62.73
2017-10-12T07:56:17.097Z,62.44
2017-10-12T07:57:17.126Z,62.63
2017-10-12T07:58:17.092Z,62.25
2017-10-12T07:59:17.473Z,61.96
2017-10-12T08:00:17.222Z,62.54
2017-10-12T08:01:17.255Z,62.25
2017-10-12T08:02:17.238Z,62.44
2017-10-12T08:03:17.303Z,62.73
2017-10-12T08:04:17.356Z,62.44
2017-10-12T08:05:17.395Z,62.25
2017-10-12T08:06:17.860Z,62.05
2017-10-12T08:07:17.413Z,62.34
2017-10-12T08:08:17.428Z,62.25
2017-10-12T08:09:17.522Z,62.34
2017-10-12T08:10:17.539Z,62.05
2017-10-12T08:11:17.522Z,62.44
2017-10-12T08:12:17.573Z,62.25
2017-10-12T08:13:17.951Z,61.86
2017-10-12T08:14:17.639Z,61.67
2017-10-12T08:15:17.717Z,61.67
2017-10-12T08:16:17.830Z,61.47
2017-10-12T08:17:17.782Z,61.47
2017-10-12T08:18:17.815Z,61.57
2017-10-12T08:19:17.850Z,61.86
2017-10-12T08:20:17.831Z,61.57
2017-10-12T08:21:17.915Z,61.86
2017-10-12T08:22:17.950Z,61.86
2017-10-12T08:23:17.927Z,61.67
2017-10-12T08:24:18.324Z,61.77
2017-10-12T08:25:17.987Z,61.57
2017-10-12T08:26:18.131Z,61.47
2017-10-12T08:27:18.049Z,62.05
2017-10-12T08:28:18.158Z,61.86
2017-10-12T08:30:18.533Z,61.41
2017-10-12T08:31:18.230Z,61.47
2017-10-12T08:32:18.244Z,61.57
2017-10-12T08:33:18.271Z,61.09
2017-10-12T08:34:18.338Z,61.09
2017-10-12T08:35:18.371Z,61.57
2017-10-12T08:36:18.395Z,61.41
2017-10-12T08:37:18.726Z,61.28
2017-10-12T08:38:18.460Z,61.38
2017-10-12T08:39:18.461Z,60.93
2017-10-12T08:40:18.546Z,60.93
2017-10-12T08:41:18.557Z,61.09
2017-10-12T08:42:18.593Z,60.80
2017-10-12T08:43:18.925Z,61.22
2017-10-12T08:44:18.658Z,60.89
2017-10-12T08:45:18.641Z,60.89
2017-10-12T08:46:18.696Z,61.02
2017-10-12T08:47:18.706Z,60.89
2017-10-12T08:48:18.747Z,61.28
2017-10-12T08:49:19.145Z,60.80
2017-10-12T08:50:18.824Z,61.22
2017-10-12T08:51:18.846Z,60.73
2017-10-12T08:52:18.880Z,60.93
2017-10-12T08:53:18.962Z,60.71
2017-10-12T08:55:19.340Z,60.99
2017-10-12T08:56:19.011Z,61.19
2017-10-12T09:00:19.207Z,60.64
2017-10-12T09:02:19.558Z,61.09
2017-10-12T09:05:20.786Z,60.80
2017-10-12T09:06:25.631Z,60.93
2017-10-12T09:07:19.391Z,60.89
2017-10-12T09:08:19.773Z,61.22
2017-10-12T09:09:19.466Z,60.71
2017-10-12T09:10:19.547Z,61.47
2017-10-12T09:11:19.523Z,60.89
2017-10-12T09:12:19.589Z,60.89
2017-10-12T09:13:19.637Z,60.89
2017-10-12T09:14:19.624Z,60.99
2017-10-12T09:15:19.655Z,60.93
2017-10-12T09:16:19.739Z,61.02
2017-10-12T09:17:19.728Z,60.44
2017-10-12T09:18:19.734Z,60.41
2017-10-12T09:19:19.786Z,60.22
2017-10-12T09:20:20.173Z,60.22
2017-10-12T09:21:19.892Z,60.54
2017-10-12T09:22:19.931Z,60.41
2017-10-12T09:23:19.959Z,60.35
2017-10-12T09:24:19.957Z,60.13
2017-10-12T09:25:20.034Z,60.41
2017-10-12T09:26:20.370Z,60.03
2017-10-12T09:27:20.105Z,60.51
2017-10-12T09:28:20.119Z,60.35
2017-10-12T09:29:20.102Z,60.54
2017-10-12T09:30:20.204Z,60.41
2017-10-12T09:31:20.241Z,60.51
2017-10-12T09:32:20.279Z,60.03
2017-10-12T09:33:20.583Z,60.51
2017-10-12T09:34:20.316Z,60.71
2017-10-12T09:35:20.351Z,60.51
2017-10-12T09:36:20.368Z,60.41
2017-10-12T09:37:20.382Z,60.51
2017-10-12T09:38:20.515Z,60.54
2017-10-12T09:39:20.494Z,60.35
2017-10-12T09:40:20.829Z,60.41
2017-10-12T09:41:20.561Z,60.35
2017-10-12T09:42:20.597Z,60.22
2017-10-12T09:43:20.625Z,60.16
2017-10-12T09:44:20.622Z,60.06
2017-10-12T09:45:20.656Z,59.74
2017-10-12T09:46:21.036Z,59.64
2017-10-12T09:47:20.758Z,59.64
2017-10-12T09:48:20.744Z,60.16
2017-10-12T09:49:20.780Z,60.54
2017-10-12T09:50:20.875Z,60.25
2017-10-12T09:51:20.904Z,60.06
2017-10-12T09:52:21.218Z,60.06
2017-10-12T09:53:20.898Z,60.25
2017-10-12T09:54:20.948Z,59.96
2017-10-12T09:55:20.977Z,60.44
2017-10-12T09:56:21.049Z,60.06
2017-10-12T09:57:21.132Z,60.06
2017-10-12T09:58:21.160Z,60.25
2017-10-12T09:59:21.518Z,59.96
2017-10-12T10:00:21.207Z,59.96
2017-10-12T10:01:21.184Z,59.48
2017-10-12T10:02:21.272Z,59.48
2017-10-12T10:03:21.248Z,59.28
2017-10-12T10:04:21.287Z,59.77
2017-10-12T10:05:21.376Z,59.96
2017-10-12T10:06:21.681Z,59.38
2017-10-12T10:07:21.390Z,59.38
2017-10-12T10:08:21.472Z,59.28
2017-10-12T10:09:21.512Z,59.67
2017-10-12T10:10:21.525Z,59.58
2017-10-12T10:11:21.551Z,59.19
2017-10-12T10:12:21.582Z,59.58
2017-10-12T10:13:21.952Z,59.48
2017-10-12T10:14:21.675Z,59.67
2017-10-12T10:15:21.712Z,59.67
2017-10-12T10:16:21.726Z,59.09
2017-10-12T10:17:21.776Z,59.00
2017-10-12T10:18:21.738Z,58.90
2017-10-12T10:19:21.847Z,59.00
2017-10-12T10:20:22.172Z,59.09
2017-10-12T10:21:21.894Z,58.70
2017-10-12T10:22:21.937Z,58.61
2017-10-12T10:23:21.974Z,58.80
2017-10-12T10:24:22.016Z,58.90
2017-10-12T10:25:22.057Z,58.90
2017-10-12T10:26:22.073Z,58.90
2017-10-12T10:27:22.406Z,58.73
2017-10-12T10:28:22.142Z,58.90
2017-10-12T10:30:22.202Z,58.45
2017-10-12T10:31:22.227Z,58.54
2017-10-12T10:32:22.261Z,58.54
2017-10-12T10:34:22.623Z,57.57
2017-10-12T10:35:22.385Z,57.57
2017-10-12T10:36:22.410Z,57.67
2017-10-12T10:37:22.386Z,57.57
2017-10-12T10:38:22.477Z,57.87
2017-10-12T10:39:22.454Z,57.67
2017-10-12T10:40:22.559Z,57.09
2017-10-12T10:41:22.884Z,57.19
2017-10-12T10:42:22.549Z,57.77
2017-10-12T10:45:23.620Z,57.96
2017-10-12T10:46:22.730Z,57.29
2017-10-12T10:47:22.715Z,57.29
2017-10-12T10:48:23.100Z,57.29
2017-10-12T10:49:22.816Z,57.38
2017-10-12T10:50:23.066Z,56.80
2017-10-12T10:51:22.867Z,57.38
2017-10-12T10:52:22.898Z,57.19
2017-10-12T10:53:22.987Z,57.38
2017-10-12T10:54:22.974Z,57.19
2017-10-12T10:55:23.359Z,57.29
2017-10-12T10:56:23.089Z,57.19
2017-10-12T10:57:23.103Z,56.90
2017-10-12T10:58:23.158Z,57.19
2017-10-12T10:59:23.194Z,56.99
2017-10-12T11:00:23.214Z,56.99
2017-10-12T11:01:23.568Z,57.09
2017-10-12T11:02:23.224Z,57.19
2017-10-12T11:03:23.397Z,57.48
2017-10-12T11:05:23.392Z,56.99
2017-10-12T11:06:23.451Z,57.19
2017-10-12T11:07:23.966Z,56.90
2017-10-12T11:08:23.482Z,56.80
2017-10-12T11:09:23.483Z,56.80
2017-10-12T11:10:23.511Z,57.09
2017-10-12T11:11:23.538Z,56.99
2017-10-12T11:12:23.577Z,57.19
2017-10-12T11:13:23.983Z,57.19
2017-10-12T11:14:23.627Z,57.19
2017-10-12T11:15:23.687Z,57.29
2017-10-12T11:16:23.750Z,57.29
2017-10-12T11:17:23.747Z,57.09
2017-10-12T11:18:23.826Z,57.19
2017-10-12T11:20:24.187Z,57.09
2017-10-12T11:21:23.921Z,57.19
2017-10-12T11:22:23.954Z,56.80
2017-10-12T11:23:23.944Z,56.41
2017-10-12T11:24:23.986Z,56.22
2017-10-12T11:25:24.061Z,56.41
2017-10-12T11:26:24.408Z,56.32
2017-10-12T11:27:24.076Z,56.41
2017-10-12T11:28:24.265Z,56.41
2017-10-12T11:29:24.157Z,56.32
2017-10-12T11:30:24.175Z,56.22
2017-10-12T11:31:24.283Z,56.13
2017-10-12T11:32:24.612Z,56.25
2017-10-12T11:33:24.359Z,56.35
2017-10-12T11:34:24.319Z,55.77
2017-10-12T11:35:24.349Z,55.93
2017-10-12T11:36:24.490Z,56.13
2017-10-12T11:37:24.415Z,55.45
2017-10-12T11:38:24.799Z,55.57
2017-10-12T11:39:24.504Z,55.67
2017-10-12T11:40:24.572Z,55.57
2017-10-12T11:41:24.570Z,55.83
2017-10-12T11:42:24.653Z,56.05
2017-10-12T11:43:24.671Z,56.32
2017-10-12T11:44:25.003Z,56.25
2017-10-12T11:45:24.707Z,55.67
2017-10-12T11:46:24.867Z,55.67
2017-10-12T11:47:24.808Z,55.55
2017-10-12T11:48:24.905Z,55.67
2017-10-12T11:49:24.861Z,55.96
2017-10-12T11:50:25.223Z,55.29
2017-10-12T11:51:24.921Z,55.67
2017-10-12T11:52:25.012Z,55.77
2017-10-12T11:53:25.028Z,56.35
2017-10-12T11:54:25.052Z,55.77
2017-10-12T11:56:25.492Z,55.67
2017-10-12T11:57:25.162Z,55.47
2017-10-12T11:59:25.234Z,55.96
2017-10-12T12:00:25.253Z,55.67
2017-10-12T12:01:25.251Z,55.47
2017-10-12T12:02:25.641Z,55.57
2017-10-12T12:03:25.350Z,56.45
2017-10-12T12:04:25.402Z,55.57
2017-10-12T12:05:25.430Z,56.05
2017-10-12T12:07:25.510Z,55.67
2017-10-12T12:08:25.827Z,56.15
2017-10-12T12:09:25.584Z,56.25
2017-10-12T12:10:25.547Z,55.57
2017-10-12T12:12:25.626Z,55.77
2017-10-12T12:14:26.047Z,55.09
2017-10-12T12:16:25.817Z,55.19
2017-10-12T12:19:26.118Z,55.09
2017-10-12T12:20:25.952Z,55.19
2017-10-12T12:21:26.263Z,54.99
2017-10-12T12:22:25.963Z,55.77
2017-10-12T12:23:26.063Z,55.57
2017-10-12T12:24:26.109Z,55.09
2017-10-12T12:25:26.123Z,55.38
2017-10-12T12:26:26.166Z,55.38
2017-10-12T12:27:26.189Z,55.09
2017-10-12T12:28:26.507Z,55.67
2017-10-12T12:29:26.251Z,55.57
2017-10-12T12:30:26.333Z,55.47
2017-10-12T12:31:26.275Z,54.99
2017-10-12T12:32:26.357Z,54.99
2017-10-12T12:33:26.398Z,55.38
2017-10-12T12:34:26.715Z,55.38
2017-10-12T12:35:26.458Z,55.47
2017-10-12T12:36:26.452Z,55.57
2017-10-12T12:37:26.485Z,55.38
2017-10-12T12:38:26.565Z,55.19
2017-10-12T12:39:26.584Z,55.57
2017-10-12T12:40:26.632Z,55.57
2017-10-12T12:41:26.945Z,55.19
2017-10-12T12:42:26.656Z,55.29
2017-10-12T12:43:26.734Z,55.38
2017-10-12T12:44:26.760Z,55.38
2017-10-12T12:45:26.784Z,55.38
2017-10-12T12:46:26.817Z,55.19
2017-10-12T12:47:26.803Z,55.38
2017-10-12T12:48:27.189Z,55.19
2017-10-12T12:49:26.884Z,55.47
2017-10-12T12:50:26.902Z,55.29
2017-10-12T12:51:27.000Z,55.38
2017-10-12T12:52:27.007Z,54.90
2017-10-12T12:53:27.160Z,55.19
2017-10-12T12:54:27.091Z,54.99
2017-10-12T12:55:27.466Z,55.38
2017-10-12T12:56:27.200Z,55.47
2017-10-12T12:57:27.209Z,55.09
2017-10-12T12:58:27.260Z,55.09
2017-10-12T12:59:27.270Z,55.57
2017-10-12T13:00:27.300Z,55.19
2017-10-12T13:01:27.351Z,55.09
2017-10-12T13:02:27.371Z,55.09
2017-10-12T13:03:27.360Z,55.19
2017-10-12T13:04:27.449Z,54.41
2017-10-12T13:05:27.465Z,54.61
2017-10-12T13:06:27.499Z,54.71
2017-10-12T13:07:27.524Z,55.09
2017-10-12T13:08:27.888Z,54.90
2017-10-12T13:09:27.646Z,54.71
2017-10-12T13:10:27.682Z,54.99
2017-10-12T13:11:27.672Z,54.99
2017-10-12T13:12:27.672Z,54.99
2017-10-12T13:13:27.746Z,55.67
2017-10-12T13:14:27.794Z,55.29
2017-10-12T13:15:28.127Z,55.77
2017-10-12T13:16:27.809Z,55.19
2017-10-12T13:17:27.849Z,55.38
2017-10-12T13:18:27.962Z,55.29
2017-10-12T13:19:27.903Z,55.09
2017-10-12T13:20:28.060Z,54.51
2017-10-12T13:21:28.033Z,54.90
2017-10-12T13:22:28.368Z,54.71
2017-10-12T13:23:28.041Z,54.63
2017-10-12T13:24:28.122Z,55.38
2017-10-12T13:25:30.651Z,54.93
2017-10-12T13:26:28.218Z,54.73
2017-10-12T13:27:28.222Z,55.31
2017-10-12T13:28:28.304Z,54.63
2017-10-12T13:29:28.599Z,54.44
2017-10-12T13:30:28.296Z,54.73
2017-10-12T13:31:29.003Z,54.83
2017-10-12T13:32:28.418Z,54.61
2017-10-12T13:33:28.451Z,54.73
2017-10-12T13:34:28.503Z,54.53
2017-10-12T13:35:28.501Z,53.96
2017-10-12T13:36:28.857Z,54.61
2017-10-12T13:37:28.588Z,54.93
2017-10-12T13:38:28.567Z,55.41
2017-10-12T13:39:28.647Z,55.41
2017-10-12T13:40:28.688Z,55.41
2017-10-12T13:41:28.682Z,55.11
2017-10-12T13:42:29.043Z,55.51
2017-10-12T13:43:28.725Z,55.41
2017-10-12T13:44:28.810Z,54.83
2017-10-12T13:45:28.844Z,55.41
2017-10-12T13:46:28.909Z,55.41
2017-10-12T13:47:28.921Z,54.15
2017-10-12T13:48:29.250Z,53.96
2017-10-12T13:50:28.979Z,53.86
2017-10-12T13:51:29.072Z,54.15
2017-10-12T13:52:29.109Z,54.63
2017-10-12T13:54:29.464Z,55.11
2017-10-12T13:55:29.173Z,55.41
2017-10-12T13:56:29.249Z,55.51
2017-10-12T13:59:29.383Z,55.41